createdAt,value
2023-04-17T00:04:45.074Z,10.6
2023-04-17T00:10:40.671Z,10.7
2023-04-17T00:16:54.461Z,10.6
2023-04-17T00:22:59.314Z,10.6
2023-04-17T00:29:20.903Z,10.7
2023-04-17T00:47:31.265Z,10.6
2023-04-17T01:00:01.976Z,10.6
2023-04-17T01:05:59.761Z,10.6
2023-04-17T01:11:59.760Z,10.6
2023-04-17T01:18:05.225Z,10.5
2023-04-17T01:24:05.895Z,10.6
2023-04-17T01:30:03.175Z,10.6
2023-04-17T01:42:32.756Z,10.6
2023-04-17T01:54:57.511Z,10.6
2023-04-17T02:13:00.768Z,10.5
2023-04-17T02:19:24.505Z,10.4
2023-04-17T02:25:29.596Z,10.4
2023-04-17T02:31:38.683Z,10.4
2023-04-17T02:37:53.642Z,10.4
2023-04-17T02:44:02.136Z,10.3
2023-04-17T02:56:28.919Z,10.4
2023-04-17T03:02:47.903Z,10.4
2023-04-17T03:09:15.963Z,10.3
2023-04-17T03:15:22.484Z,10.3
2023-04-17T03:21:15.608Z,10.3
2023-04-17T03:27:19.807Z,10.3
2023-04-17T04:12:22.642Z,10.4
2023-04-17T04:18:25.169Z,10.4
2023-04-17T04:24:24.519Z,10.4
2023-04-17T04:36:36.090Z,10.4
2023-04-17T04:49:18.811Z,10.3
2023-04-17T04:55:17.082Z,10.2
2023-04-17T05:01:21.990Z,10.3
2023-04-17T05:07:17.682Z,10.2
2023-04-17T05:13:14.517Z,10.3
2023-04-17T05:19:09.223Z,10.3
2023-04-17T05:25:01.371Z,10.3
2023-04-17T05:37:07.649Z,10.3
2023-04-17T05:43:01.963Z,10.2
2023-04-17T05:48:56.844Z,10.3
2023-04-17T05:54:51.594Z,10.3
2023-04-17T06:00:45.500Z,10.2
2023-04-17T06:06:39.768Z,10.2
2023-04-17T06:12:33.268Z,10.2
2023-04-17T06:18:27.210Z,10.2
2023-04-17T06:24:21.463Z,10.1
2023-04-17T06:30:13.706Z,10.1
2023-04-17T06:36:05.829Z,10.3
2023-04-17T06:42:00.291Z,10.3
2023-04-17T06:47:54.740Z,10.3
2023-04-17T06:53:51.214Z,10.4
2023-04-17T06:59:45.712Z,10.4
2023-04-17T07:05:38.361Z,10.4
2023-04-17T07:11:32.271Z,10.5
2023-04-17T07:17:24.093Z,10.4
2023-04-17T07:23:14.999Z,10.2
2023-04-17T07:29:07.983Z,10.2
2023-04-17T07:35:01.991Z,10.3
2023-04-17T07:40:55.185Z,10.2
2023-04-17T07:46:48.705Z,10.4
2023-04-17T07:52:42.535Z,10.4
2023-04-17T07:58:33.985Z,10.6
2023-04-17T08:04:26.481Z,10.8
2023-04-17T08:10:23.573Z,10.8
2023-04-17T08:22:27.008Z,11.2
2023-04-17T08:40:43.592Z,11.5
2023-04-17T08:46:43.809Z,11.5
2023-04-17T08:52:48.007Z,11.6
2023-04-17T09:11:14.738Z,12
2023-04-17T09:17:09.756Z,12.2
2023-04-17T09:23:01.542Z,12.3
2023-04-17T09:29:00.199Z,12.6
2023-04-17T09:35:03.000Z,12.6
2023-04-17T09:40:51.899Z,12.6
2023-04-17T09:46:46.594Z,12.5
2023-04-17T09:52:45.361Z,12.6
2023-04-17T10:04:46.297Z,12.9
2023-04-17T10:10:40.182Z,13.1
2023-04-17T10:16:33.856Z,13.3
2023-04-17T10:22:26.428Z,13.5
2023-04-17T10:28:17.628Z,13.4
2023-04-17T12:21:44.870Z,14.6
2023-04-17T12:27:48.056Z,14.8
2023-04-17T12:33:43.220Z,14.4
2023-04-17T12:46:35.152Z,14.4
2023-04-17T12:52:38.202Z,14.3
2023-04-17T12:58:44.510Z,14.4
2023-04-17T13:05:11.558Z,14.3
2023-04-17T13:11:52.968Z,14.3
2023-04-17T13:17:54.266Z,14.3
2023-04-17T13:37:23.568Z,14.5
2023-04-17T17:03:43.158Z,14.6
2023-04-17T17:36:03.387Z,14.2
2023-04-17T17:48:14.765Z,14
2023-04-17T17:54:38.021Z,14
2023-04-17T18:31:07.417Z,13.2
2023-04-17T19:16:51.795Z,12.4
2023-04-17T19:22:45.955Z,12.4
2023-04-17T19:28:49.486Z,12.4
2023-04-17T19:35:04.503Z,12.4
2023-04-17T20:00:27.041Z,11.9
2023-04-17T20:18:56.857Z,11.7
2023-04-17T20:24:59.291Z,11.6
2023-04-17T20:37:22.462Z,11.5
2023-04-17T20:56:33.209Z,11.2
2023-04-17T21:22:56.426Z,10.7
2023-04-17T21:49:46.319Z,10.4
2023-04-17T21:56:02.387Z,10.6
2023-04-17T22:02:20.436Z,10.3
2023-04-17T22:48:05.369Z,10.2
2023-04-17T22:54:21.956Z,10
2023-04-17T23:00:50.456Z,10.1
2023-04-17T23:13:40.249Z,9.6
